NCAR-RAP Real-Time Weather Data

Output produced by METARs form (08 May 2021  02:09 UTC)
found at http://weather.rap.ucar.edu/surface/
 
KFFT 080153Z AUTO 21006KT 10SM BKN110 11/07 A2995 RMK AO2 RAE00 SLP140 P0000 T01060067
KFFT 080053Z AUTO 23017G29KT 6SM -RA FEW010 BKN080 OVC120 12/07 A2994 RMK AO2 PK WND 23029/0047 RAB23 SLP139 P0001 T01220067
KFFT 072353Z AUTO 26005KT 10SM FEW070 SCT090 BKN110 14/04 A2996 RMK AO2 RAE07B37E47 SLP145 P0000 60000 T01440044 10189 20144 58006
KFFT 072253Z AUTO 30016G29KT 10SM -RA BKN060 OVC080 16/03 A2999 RMK AO2 PK WND 31029/2252 RAB41 PRESRR SLP155 P0000 T01610033
KFFT 072153Z AUTO 24006G16KT 10SM BKN075 BKN085 18/03 A2996 RMK AO2 SLP145 T01780033
KFFT 072053Z AUTO 24009G14KT 10SM FEW070 BKN100 18/03 A2998 RMK AO2 SLP149 T01830028 58026
KFFT 071953Z AUTO 24008KT 10SM SCT075 BKN100 17/02 A3001 RMK AO2 SLP159 T01720022
KFFT 071853Z AUTO 28008G21KT 10SM FEW065 BKN080 17/03 A3003 RMK AO2 SLP168 T01720028
KFFT 071753Z AUTO 26011G17KT 10SM BKN065 BKN085 17/03 A3006 RMK AO2 SLP176 T01670028 10172 20072 58008
KFFT 071653Z AUTO 28007G16KT 10SM BKN060 BKN075 16/02 A3007 RMK AO2 SLP182 T01560022
KFFT 071553Z AUTO VRB04KT 10SM CLR 15/03 A3008 RMK AO2 SLP183 T01500033
KFFT 071453Z AUTO 27007KT 10SM CLR 14/04 A3008 RMK AO2 SLP184 T01390039 51009
KFFT 071353Z AUTO 25003KT 10SM CLR 11/05 A3008 RMK AO2 SLP185 T01110050
KFFT 071253Z AUTO VRB06KT 10SM CLR 09/05 A3007 RMK AO2 SLP181 T00890050
KFFT 071153Z AUTO VRB03KT 5SM BR FEW006 07/05 A3005 RMK AO2 SLP176 70001 T00720050 10106 20061 53017
KFFT 071053Z AUTO 29003KT 7SM CLR 07/04 A3003 RMK AO2 SLP168 T00670039